Time;durP1;ratioP1;P1;durP2;ratioP2;P2;SDS_P1;SDS_P2;PMS_P1;PMS_P2;Temp;Humidity;BMP_temperature;BMP_pressure;BME280_temperature;BME280_humidity;BME280_pressure;Samples;Min_cycle;Max_cycle;Signal;HPM_P1;HPM_P2
2021/08/13 00:02:18;;;;;;;;;;;26.60;44.00;;;;;;4999295;28;89107;-49
2021/08/13 00:04:44;;;;;;;;;;;26.60;44.00;;;;;;4998615;28;87177;-47
2021/08/13 00:07:09;;;;;;;;;;;26.60;44.10;;;;;;4999419;28;89261;-48
2021/08/13 00:09:35;;;;;;;;;;;26.60;44.00;;;;;;5000350;28;87396;-47
2021/08/13 00:12:00;;;;;;;;;;;26.60;44.30;;;;;;4999404;28;87165;-48
2021/08/13 00:14:26;;;;;;;;;;;26.50;44.00;;;;;;4998697;28;87525;-50
2021/08/13 00:16:51;;;;;;;;;;;26.50;44.20;;;;;;5000942;28;88599;-47
2021/08/13 00:19:17;;;;;;;;;;;26.50;44.90;;;;;;4998801;28;88131;-47
2021/08/13 00:21:44;;;;;;;;;;;26.50;44.20;;;;;;4998735;28;89581;-50
2021/08/13 00:24:09;;;;;;;;;;;26.50;43.90;;;;;;5002221;28;88595;-48
2021/08/13 00:26:35;;;;;;;;;;;26.40;44.00;;;;;;5001994;28;88046;-48
2021/08/13 00:29:00;;;;;;;;;;;26.40;44.00;;;;;;5001502;28;88531;-50
2021/08/13 00:31:26;;;;;;;;;;;26.40;44.10;;;;;;5002417;28;87143;-48
2021/08/13 00:33:52;;;;;;;;;;;26.40;44.20;;;;;;5001585;28;86662;-48
2021/08/13 00:36:18;;;;;;;;;;;26.40;44.10;;;;;;5000010;28;87860;-48
2021/08/13 00:38:43;;;;;;;;;;;26.40;44.00;;;;;;5002140;28;87190;-48
2021/08/13 00:41:09;;;;;;;;;;;26.40;43.90;;;;;;4997438;28;89195;-47
2021/08/13 00:43:34;;;;;;;;;;;26.30;44.10;;;;;;4997469;28;87244;-47
2021/08/13 00:46:00;;;;;;;;;;;26.30;44.20;;;;;;4999030;28;89046;-47
2021/08/13 00:48:25;;;;;;;;;;;26.30;43.80;;;;;;5001209;28;88649;-48
2021/08/13 00:50:51;;;;;;;;;;;26.30;43.90;;;;;;5001723;28;87128;-49
2021/08/13 00:53:17;;;;;;;;;;;26.30;44.10;;;;;;5001337;28;87140;-49
2021/08/13 00:55:43;;;;;;;;;;;26.20;44.20;;;;;;5000361;28;89082;-48
2021/08/13 00:58:08;;;;;;;;;;;26.20;44.00;;;;;;5003877;28;86470;-48
2021/08/13 01:00:34;;;;;;;;;;;26.20;43.90;;;;;;5000123;28;87942;-48
2021/08/13 01:03:00;;;;;;;;;;;26.20;44.10;;;;;;4999479;28;87195;-47
2021/08/13 01:05:26;;;;;;;;;;;26.10;44.10;;;;;;4997368;28;88139;-47
2021/08/13 01:07:51;;;;;;;;;;;26.10;43.90;;;;;;4997007;28;88259;-48
2021/08/13 01:10:17;;;;;;;;;;;26.20;44.00;;;;;;4997760;28;88638;-48
2021/08/13 01:12:54;;;;;;;;;;;26.10;44.20;;;;;;5001279;28;88764;-47
2021/08/13 01:15:20;;;;;;;;;;;26.10;44.20;;;;;;4998321;28;87451;-47
2021/08/13 01:17:48;;;;;;;;;;;26.10;44.30;;;;;;4997141;28;87139;-48
2021/08/13 01:20:32;;;;;;;;;;;26.10;44.20;;;;;;5003727;28;88047;-48
2021/08/13 01:23:02;;;;;;;;;;;26.00;44.70;;;;;;4999505;28;88170;-48
2021/08/13 01:25:31;;;;;;;;;;;26.00;44.10;;;;;;4997308;28;87192;-47
2021/08/13 01:27:57;;;;;;;;;;;26.00;44.30;;;;;;4998735;28;90038;-47
2021/08/13 01:30:25;;;;;;;;;;;26.00;44.10;;;;;;4996837;28;88115;-47
2021/08/13 01:32:51;;;;;;;;;;;26.00;44.20;;;;;;5000820;28;89346;-50
2021/08/13 01:35:22;;;;;;;;;;;25.90;44.00;;;;;;5000348;28;89204;-49
2021/08/13 01:37:50;;;;;;;;;;;25.90;44.10;;;;;;4998653;28;87199;-47
2021/08/13 01:40:17;;;;;;;;;;;25.90;44.00;;;;;;4997585;28;89262;-47
2021/08/13 01:42:44;;;;;;;;;;;25.90;44.20;;;;;;5004139;28;88356;-48
2021/08/13 01:45:11;;;;;;;;;;;25.90;44.30;;;;;;4999307;28;89082;-48
2021/08/13 01:47:38;;;;;;;;;;;25.90;44.20;;;;;;4998028;28;88247;-47
2021/08/13 01:50:05;;;;;;;;;;;25.80;44.20;;;;;;4999571;28;87154;-54
2021/08/13 01:52:31;;;;;;;;;;;25.80;44.10;;;;;;4997646;28;89742;-47
2021/08/13 01:54:57;;;;;;;;;;;25.80;44.10;;;;;;4997161;28;88778;-47
2021/08/13 01:57:23;;;;;;;;;;;25.80;44.30;;;;;;4997668;28;87253;-47
2021/08/13 01:59:49;;;;;;;;;;;25.80;44.10;;;;;;4996633;28;89340;-47
2021/08/13 02:02:15;;;;;;;;;;;25.70;43.90;;;;;;4996470;28;89594;-47
2021/08/13 02:04:42;;;;;;;;;;;25.70;44.10;;;;;;5000177;28;87129;-47
2021/08/13 02:07:08;;;;;;;;;;;25.70;44.20;;;;;;4996771;28;89621;-47
2021/08/13 02:09:34;;;;;;;;;;;25.70;44.20;;;;;;4997968;28;88687;-47
2021/08/13 02:12:00;;;;;;;;;;;25.70;44.10;;;;;;5001679;28;87208;-48
2021/08/13 02:14:25;;;;;;;;;;;25.70;44.30;;;;;;4999412;28;88318;-48
2021/08/13 02:16:52;;;;;;;;;;;25.70;44.30;;;;;;4996438;28;88290;-48
2021/08/13 02:19:37;;;;;;;;;;;25.60;44.00;;;;;;4998607;28;89849;-47
2021/08/13 02:22:03;;;;;;;;;;;25.60;44.10;;;;;;4996785;28;89148;-48
2021/08/13 02:24:28;;;;;;;;;;;25.60;44.30;;;;;;4997464;28;87226;-48
2021/08/13 02:26:55;;;;;;;;;;;25.60;44.50;;;;;;5001247;28;87170;-49
2021/08/13 02:29:21;;;;;;;;;;;25.50;44.20;;;;;;4997560;28;87309;-47
2021/08/13 02:31:47;;;;;;;;;;;25.50;44.20;;;;;;4997612;28;89079;-47
2021/08/13 02:34:13;;;;;;;;;;;25.50;44.40;;;;;;4997706;28;87288;-47
2021/08/13 02:36:47;;;;;;;;;;;25.50;44.30;;;;;;4998102;28;86435;-47
2021/08/13 02:39:15;;;;;;;;;;;25.50;44.50;;;;;;4998911;28;88311;-48
2021/08/13 02:41:42;;;;;;;;;;;25.50;44.40;;;;;;4995568;28;88142;-47
2021/08/13 02:44:09;;;;;;;;;;;25.40;44.20;;;;;;4998544;28;88134;-48
2021/08/13 02:46:37;;;;;;;;;;;25.40;44.20;;;;;;5000005;28;88638;-48
2021/08/13 02:49:05;;;;;;;;;;;25.40;44.40;;;;;;5000370;28;87152;-47
2021/08/13 02:51:32;;;;;;;;;;;25.40;44.60;;;;;;4997159;28;87189;-48
2021/08/13 02:53:57;;;;;;;;;;;25.30;44.30;;;;;;4999251;28;88090;-52
2021/08/13 02:56:25;;;;;;;;;;;25.30;45.00;;;;;;5000129;28;87185;-48
2021/08/13 02:58:55;;;;;;;;;;;25.30;44.40;;;;;;4996770;28;88638;-48
2021/08/13 03:01:25;;;;;;;;;;;25.30;44.50;;;;;;4997728;28;87081;-48
2021/08/13 03:03:52;;;;;;;;;;;25.30;44.30;;;;;;4997922;28;87223;-48
2021/08/13 03:06:18;;;;;;;;;;;25.30;44.40;;;;;;4995177;28;90110;-47
2021/08/13 03:08:45;;;;;;;;;;;25.20;44.30;;;;;;5001673;28;90574;-49
2021/08/13 03:11:11;;;;;;;;;;;25.20;44.40;;;;;;4997424;28;89110;-47
2021/08/13 03:13:37;;;;;;;;;;;25.20;44.60;;;;;;4995953;28;88278;-48
2021/08/13 03:16:03;;;;;;;;;;;25.20;44.50;;;;;;4997324;28;88710;-47
2021/08/13 03:18:29;;;;;;;;;;;25.20;44.60;;;;;;4999916;28;87478;-47
2021/08/13 03:20:56;;;;;;;;;;;25.10;44.50;;;;;;4998310;28;88087;-48
2021/08/13 03:23:21;;;;;;;;;;;25.10;44.50;;;;;;4996717;28;87158;-47
2021/08/13 03:25:47;;;;;;;;;;;25.10;44.40;;;;;;4996300;28;87754;-47
2021/08/13 03:28:13;;;;;;;;;;;25.10;44.70;;;;;;4996019;28;88629;-48
2021/08/13 03:30:40;;;;;;;;;;;25.00;44.50;;;;;;5002194;28;88929;-48
2021/08/13 03:33:07;;;;;;;;;;;25.00;44.60;;;;;;4996462;28;89097;-48
2021/08/13 03:35:33;;;;;;;;;;;25.00;44.60;;;;;;4995721;28;87188;-47
2021/08/13 03:37:58;;;;;;;;;;;25.00;44.60;;;;;;4994899;28;87200;-47
2021/08/13 03:40:24;;;;;;;;;;;25.00;44.50;;;;;;4999611;28;88727;-49
2021/08/13 03:42:51;;;;;;;;;;;24.90;44.60;;;;;;5003567;28;87160;-48
2021/08/13 03:45:16;;;;;;;;;;;25.00;44.50;;;;;;5002168;28;89125;-49
2021/08/13 03:47:42;;;;;;;;;;;24.90;44.60;;;;;;4999766;28;87893;-48
2021/08/13 03:50:07;;;;;;;;;;;24.90;44.70;;;;;;4999219;28;86426;-47
2021/08/13 03:52:33;;;;;;;;;;;24.90;44.50;;;;;;5001909;28;87598;-47
2021/08/13 03:54:58;;;;;;;;;;;24.90;44.70;;;;;;5002140;28;87257;-50
2021/08/13 03:57:24;;;;;;;;;;;24.90;44.50;;;;;;4999390;28;89026;-47
2021/08/13 03:59:49;;;;;;;;;;;24.80;44.50;;;;;;5000376;28;88181;-47
2021/08/13 04:02:15;;;;;;;;;;;24.80;44.60;;;;;;5000304;28;87145;-49
2021/08/13 04:04:40;;;;;;;;;;;24.80;44.60;;;;;;5001521;28;89073;-47
2021/08/13 04:07:06;;;;;;;;;;;24.80;44.50;;;;;;5000162;28;87326;-47
2021/08/13 04:09:31;;;;;;;;;;;24.80;44.80;;;;;;5000430;28;87265;-48
2021/08/13 04:11:58;;;;;;;;;;;24.80;44.70;;;;;;5000678;28;87936;-48
2021/08/13 04:14:24;;;;;;;;;;;24.80;44.80;;;;;;5002226;28;88835;-47
2021/08/13 04:16:49;;;;;;;;;;;24.70;44.80;;;;;;5001433;28;88706;-47
2021/08/13 04:19:15;;;;;;;;;;;24.70;44.70;;;;;;5002386;28;87917;-48
2021/08/13 04:21:40;;;;;;;;;;;24.70;44.70;;;;;;5001554;28;88095;-47
2021/08/13 04:24:06;;;;;;;;;;;24.60;44.70;;;;;;5001307;28;87929;-47
2021/08/13 04:26:31;;;;;;;;;;;24.60;44.80;;;;;;5000172;28;87167;-47
2021/08/13 04:28:57;;;;;;;;;;;24.60;44.50;;;;;;4999607;28;87139;-47
2021/08/13 04:31:22;;;;;;;;;;;24.60;44.70;;;;;;4998882;28;87366;-48
2021/08/13 04:33:48;;;;;;;;;;;24.60;44.70;;;;;;4997874;28;89831;-47
2021/08/13 04:36:13;;;;;;;;;;;24.60;44.80;;;;;;5000265;28;87260;-47
2021/08/13 04:38:39;;;;;;;;;;;24.60;44.60;;;;;;4997834;28;87499;-47
2021/08/13 04:41:05;;;;;;;;;;;24.60;44.70;;;;;;4997267;28;87238;-47
2021/08/13 04:43:30;;;;;;;;;;;24.50;44.80;;;;;;4999735;28;88476;-47
2021/08/13 04:45:56;;;;;;;;;;;24.60;44.90;;;;;;5001462;28;89174;-47
2021/08/13 04:48:21;;;;;;;;;;;24.50;44.90;;;;;;5001915;28;87134;-48
2021/08/13 04:50:47;;;;;;;;;;;24.50;44.90;;;;;;5000112;28;87640;-49
2021/08/13 04:53:14;;;;;;;;;;;24.50;44.80;;;;;;5000087;28;89698;-47
2021/08/13 04:55:39;;;;;;;;;;;24.50;44.80;;;;;;5001536;28;87242;-48
2021/08/13 04:58:05;;;;;;;;;;;24.50;45.00;;;;;;4997351;28;88203;-47
2021/08/13 05:00:31;;;;;;;;;;;24.50;44.90;;;;;;4997202;28;87262;-47
2021/08/13 05:02:56;;;;;;;;;;;24.50;45.00;;;;;;4999450;28;87353;-47
2021/08/13 05:05:22;;;;;;;;;;;24.40;44.90;;;;;;4997223;28;89686;-48
2021/08/13 05:07:47;;;;;;;;;;;24.40;45.00;;;;;;4997434;28;87162;-47
2021/08/13 05:10:14;;;;;;;;;;;24.40;44.90;;;;;;4996969;28;88085;-47
2021/08/13 05:12:40;;;;;;;;;;;24.40;45.00;;;;;;4996392;28;87794;-47
2021/08/13 05:15:06;;;;;;;;;;;24.40;45.10;;;;;;5000332;28;88791;-49
2021/08/13 05:17:32;;;;;;;;;;;24.40;45.20;;;;;;5003488;28;87244;-47
2021/08/13 05:19:58;;;;;;;;;;;24.40;45.00;;;;;;4999652;28;87199;-48
2021/08/13 05:22:23;;;;;;;;;;;24.40;45.00;;;;;;4998703;28;87384;-47
2021/08/13 05:24:49;;;;;;;;;;;24.40;45.70;;;;;;4997556;28;88309;-49
2021/08/13 05:27:14;;;;;;;;;;;24.30;45.00;;;;;;4998786;28;86416;-47
2021/08/13 05:29:40;;;;;;;;;;;24.30;45.00;;;;;;4999581;28;87207;-49
2021/08/13 05:32:06;;;;;;;;;;;24.30;45.20;;;;;;4998365;28;90034;-47
2021/08/13 05:34:32;;;;;;;;;;;24.30;45.20;;;;;;4997501;28;88076;-48
2021/08/13 05:36:58;;;;;;;;;;;24.30;45.20;;;;;;4998101;28;88829;-48
2021/08/13 05:39:23;;;;;;;;;;;24.30;45.20;;;;;;5000655;28;89640;-47
2021/08/13 05:41:49;;;;;;;;;;;24.30;45.20;;;;;;4997721;28;87140;-47
2021/08/13 05:44:14;;;;;;;;;;;24.20;45.20;;;;;;4996361;28;88233;-48
2021/08/13 05:46:40;;;;;;;;;;;24.20;45.30;;;;;;4997026;28;88872;-47
2021/08/13 05:49:05;;;;;;;;;;;24.30;45.30;;;;;;4999610;28;88830;-48
2021/08/13 05:51:31;;;;;;;;;;;24.20;45.40;;;;;;5001197;28;88728;-48
2021/08/13 05:53:56;;;;;;;;;;;24.30;45.30;;;;;;5000587;28;87183;-47
2021/08/13 05:56:22;;;;;;;;;;;24.30;45.40;;;;;;4999738;28;89318;-48
2021/08/13 05:58:47;;;;;;;;;;;24.30;45.40;;;;;;4998987;28;89804;-48
2021/08/13 06:01:13;;;;;;;;;;;24.20;45.40;;;;;;5002366;28;87163;-47
2021/08/13 06:03:38;;;;;;;;;;;24.20;45.40;;;;;;4998243;28;88037;-48
2021/08/13 06:06:04;;;;;;;;;;;24.20;45.40;;;;;;4998556;28;87154;-47
2021/08/13 06:08:29;;;;;;;;;;;24.20;45.50;;;;;;4998780;28;89221;-48
2021/08/13 06:10:55;;;;;;;;;;;24.20;45.50;;;;;;4997508;28;90124;-48
2021/08/13 06:13:21;;;;;;;;;;;24.20;45.40;;;;;;4997118;28;87267;-48
2021/08/13 06:15:47;;;;;;;;;;;24.20;45.50;;;;;;4996934;28;87678;-48
2021/08/13 06:18:12;;;;;;;;;;;24.20;45.50;;;;;;4997833;28;89137;-47
2021/08/13 06:20:38;;;;;;;;;;;24.20;45.50;;;;;;5000495;28;87147;-48
2021/08/13 06:23:04;;;;;;;;;;;24.30;45.60;;;;;;5002174;28;89114;-49
2021/08/13 06:25:29;;;;;;;;;;;24.20;45.50;;;;;;5000224;28;87155;-48
2021/08/13 06:27:55;;;;;;;;;;;24.20;45.60;;;;;;4999775;28;87392;-48
2021/08/13 06:30:21;;;;;;;;;;;24.20;45.60;;;;;;4999677;28;88209;-47
2021/08/13 06:32:48;;;;;;;;;;;24.20;45.60;;;;;;4997401;28;87164;-48
2021/08/13 06:35:13;;;;;;;;;;;24.20;45.70;;;;;;4996282;28;89013;-47
2021/08/13 06:37:52;;;;;;;;;;;24.20;45.70;;;;;;4996478;28;88836;-47
2021/08/13 06:40:18;;;;;;;;;;;24.20;45.70;;;;;;4997799;28;86426;-48
2021/08/13 06:42:44;;;;;;;;;;;24.20;45.70;;;;;;4995769;28;87163;-47
2021/08/13 06:45:11;;;;;;;;;;;24.20;45.70;;;;;;4999952;28;89485;-48
2021/08/13 06:47:36;;;;;;;;;;;24.20;45.80;;;;;;4998249;28;88931;-48
2021/08/13 06:50:02;;;;;;;;;;;24.20;45.80;;;;;;4999134;28;87814;-48
2021/08/13 06:52:28;;;;;;;;;;;24.20;45.70;;;;;;4997526;28;87178;-48
2021/08/13 06:54:53;;;;;;;;;;;24.10;45.70;;;;;;4997159;28;87604;-48
2021/08/13 06:57:19;;;;;;;;;;;24.20;45.70;;;;;;4995984;28;89144;-47
2021/08/13 06:59:44;;;;;;;;;;;24.20;45.90;;;;;;4995641;28;87171;-48
2021/08/13 07:02:10;;;;;;;;;;;24.20;45.80;;;;;;4996673;28;88503;-50
2021/08/13 07:04:35;;;;;;;;;;;24.20;45.90;;;;;;5002768;28;87138;-51
2021/08/13 07:07:01;;;;;;;;;;;24.20;45.80;;;;;;5000099;28;88432;-48
2021/08/13 07:09:26;;;;;;;;;;;24.20;45.80;;;;;;4999556;28;88225;-49
2021/08/13 07:11:52;;;;;;;;;;;24.10;45.80;;;;;;4999483;28;88092;-48
2021/08/13 07:14:17;;;;;;;;;;;24.20;45.90;;;;;;5000224;28;87786;-48
2021/08/13 07:16:43;;;;;;;;;;;24.10;45.80;;;;;;5001986;28;88865;-47
2021/08/13 07:19:08;;;;;;;;;;;24.10;45.80;;;;;;5001439;28;87233;-47
2021/08/13 07:21:34;;;;;;;;;;;24.10;45.80;;;;;;5000743;28;87578;-48
2021/08/13 07:24:00;;;;;;;;;;;24.10;45.90;;;;;;4999630;28;88646;-49
2021/08/13 07:26:25;;;;;;;;;;;24.10;45.80;;;;;;5002095;28;87148;-47
2021/08/13 07:28:51;;;;;;;;;;;24.10;45.70;;;;;;4998644;28;88864;-47
2021/08/13 07:31:16;;;;;;;;;;;24.10;45.80;;;;;;5001705;28;87994;-48
2021/08/13 07:33:42;;;;;;;;;;;24.10;45.80;;;;;;5003343;28;87561;-48
2021/08/13 07:36:07;;;;;;;;;;;24.10;45.80;;;;;;5001753;28;89022;-50
2021/08/13 07:38:39;;;;;;;;;;;24.10;45.90;;;;;;5002259;28;87100;-47
2021/08/13 07:41:06;;;;;;;;;;;24.10;45.80;;;;;;4999289;28;89016;-48
2021/08/13 07:43:31;;;;;;;;;;;24.10;45.90;;;;;;4999214;28;88396;-49
2021/08/13 07:45:56;;;;;;;;;;;24.10;45.80;;;;;;5002974;28;87875;-48
2021/08/13 07:48:22;;;;;;;;;;;24.10;45.80;;;;;;5005650;28;87472;-49
2021/08/13 07:50:48;;;;;;;;;;;24.10;45.80;;;;;;5002160;28;87268;-50
2021/08/13 07:53:13;;;;;;;;;;;24.10;45.80;;;;;;5001955;28;87481;-48
2021/08/13 07:55:39;;;;;;;;;;;24.10;45.90;;;;;;5000366;28;87208;-47
2021/08/13 07:58:04;;;;;;;;;;;24.10;45.90;;;;;;4999836;28;87169;-47
2021/08/13 08:00:30;;;;;;;;;;;24.10;45.90;;;;;;4998702;28;88111;-48
2021/08/13 08:02:55;;;;;;;;;;;24.10;45.90;;;;;;4998088;28;87718;-48
2021/08/13 08:05:21;;;;;;;;;;;24.10;46.00;;;;;;4998608;28;88426;-48
2021/08/13 08:07:46;;;;;;;;;;;24.10;45.90;;;;;;5000087;28;88747;-48
2021/08/13 08:10:12;;;;;;;;;;;24.10;45.90;;;;;;5001049;28;88501;-51
2021/08/13 08:12:37;;;;;;;;;;;24.10;46.00;;;;;;5002464;28;87943;-49
2021/08/13 08:15:03;;;;;;;;;;;24.10;45.90;;;;;;5002388;28;88475;-48
2021/08/13 08:17:29;;;;;;;;;;;24.10;45.90;;;;;;5001957;28;86517;-49
2021/08/13 08:19:55;;;;;;;;;;;24.10;46.00;;;;;;5000296;28;87180;-47
2021/08/13 08:22:20;;;;;;;;;;;24.10;46.00;;;;;;4998982;28;88056;-48
2021/08/13 08:24:46;;;;;;;;;;;24.10;46.00;;;;;;4998790;28;88106;-48
2021/08/13 08:27:11;;;;;;;;;;;24.10;45.90;;;;;;4999273;28;88684;-47
2021/08/13 08:29:37;;;;;;;;;;;24.10;45.80;;;;;;4998942;28;87660;-48
2021/08/13 08:32:02;;;;;;;;;;;24.10;45.90;;;;;;5002025;28;87161;-48
2021/08/13 08:34:28;;;;;;;;;;;24.10;45.90;;;;;;4999257;28;87701;-47
2021/08/13 08:36:53;;;;;;;;;;;24.10;45.80;;;;;;4998995;28;87145;-47
2021/08/13 08:39:21;;;;;;;;;;;24.10;45.80;;;;;;4998117;28;87912;-47
2021/08/13 08:41:47;;;;;;;;;;;24.20;45.90;;;;;;5001512;28;88731;-48
2021/08/13 08:44:13;;;;;;;;;;;24.20;45.80;;;;;;5000391;28;87139;-48
2021/08/13 08:46:38;;;;;;;;;;;24.20;45.80;;;;;;5000071;28;89417;-48
2021/08/13 08:49:04;;;;;;;;;;;24.20;45.70;;;;;;4999923;28;88861;-47
2021/08/13 08:51:30;;;;;;;;;;;24.10;45.60;;;;;;5000851;28;87178;-48
2021/08/13 08:53:56;;;;;;;;;;;24.20;45.70;;;;;;5004509;28;87181;-51
2021/08/13 08:56:23;;;;;;;;;;;24.20;45.60;;;;;;5002028;28;87210;-50
2021/08/13 08:58:49;;;;;;;;;;;24.20;45.60;;;;;;5000939;28;89438;-48
2021/08/13 09:01:15;;;;;;;;;;;24.20;45.60;;;;;;5001395;28;89775;-49
2021/08/13 09:03:44;;;;;;;;;;;24.20;45.60;;;;;;5001173;28;87185;-48
2021/08/13 09:06:10;;;;;;;;;;;24.20;45.40;;;;;;4998362;28;88034;-47
2021/08/13 09:08:36;;;;;;;;;;;24.20;45.30;;;;;;4997974;28;89502;-47
2021/08/13 09:11:01;;;;;;;;;;;24.20;45.40;;;;;;4999240;28;87161;-48
2021/08/13 09:13:27;;;;;;;;;;;24.20;45.60;;;;;;5001863;28;89263;-48
2021/08/13 09:15:53;;;;;;;;;;;24.30;45.40;;;;;;5001124;28;87179;-49
2021/08/13 09:18:20;;;;;;;;;;;24.20;45.40;;;;;;5001380;28;87810;-50
2021/08/13 09:20:54;;;;;;;;;;;24.30;45.40;;;;;;5000523;28;89466;-48
2021/08/13 09:23:31;;;;;;;;;;;24.30;45.50;;;;;;4997963;28;87165;-48
2021/08/13 09:25:58;;;;;;;;;;;24.30;45.40;;;;;;4998596;28;88179;-48
2021/08/13 09:28:42;;;;;;;;;;;24.30;45.40;;;;;;4997395;28;88103;-48
2021/08/13 09:31:11;;;;;;;;;;;24.30;45.30;;;;;;5000534;28;86437;-48
2021/08/13 09:33:37;;;;;;;;;;;24.30;45.10;;;;;;4997663;28;88446;-48
2021/08/13 09:36:03;;;;;;;;;;;24.30;45.00;;;;;;4999353;28;89179;-49
2021/08/13 09:38:28;;;;;;;;;;;24.30;45.00;;;;;;4996606;28;88125;-48
2021/08/13 09:41:04;;;;;;;;;;;24.30;45.00;;;;;;4998081;28;88566;-47
2021/08/13 09:43:29;;;;;;;;;;;24.40;45.10;;;;;;4998104;28;87195;-47
2021/08/13 09:46:06;;;;;;;;;;;24.40;45.00;;;;;;4998475;28;88094;-48
2021/08/13 09:48:31;;;;;;;;;;;24.40;44.80;;;;;;4996764;28;89214;-48
2021/08/13 09:50:57;;;;;;;;;;;24.40;44.90;;;;;;4998401;28;87241;-48
2021/08/13 09:53:23;;;;;;;;;;;24.40;44.90;;;;;;4999569;28;87182;-48
2021/08/13 09:55:49;;;;;;;;;;;24.40;44.70;;;;;;5000993;28;86776;-50
2021/08/13 09:58:33;;;;;;;;;;;24.50;44.90;;;;;;5003997;28;87153;-52
2021/08/13 10:00:59;;;;;;;;;;;24.40;44.70;;;;;;4996734;28;89362;-47
2021/08/13 10:03:24;;;;;;;;;;;24.50;44.80;;;;;;4997678;28;88119;-48
2021/08/13 10:06:03;;;;;;;;;;;24.50;44.70;;;;;;4998168;28;90268;-48
2021/08/13 10:08:42;;;;;;;;;;;24.50;44.60;;;;;;4999791;28;89396;-51
2021/08/13 10:11:12;;;;;;;;;;;24.50;44.50;;;;;;4997832;28;87240;-47
2021/08/13 10:13:42;;;;;;;;;;;24.50;44.40;;;;;;4999313;28;89457;-49
2021/08/13 10:16:07;;;;;;;;;;;24.50;44.60;;;;;;4998249;28;89297;-48
2021/08/13 10:18:36;;;;;;;;;;;24.50;44.90;;;;;;4996236;28;87197;-48
2021/08/13 10:21:01;;;;;;;;;;;24.60;44.70;;;;;;5003164;28;89085;-49
2021/08/13 10:23:27;;;;;;;;;;;24.60;44.80;;;;;;4999593;28;88138;-50
2021/08/13 10:25:54;;;;;;;;;;;24.60;44.80;;;;;;4998715;28;87236;-47
2021/08/13 10:28:23;;;;;;;;;;;24.60;44.70;;;;;;4998997;28;89656;-48
2021/08/13 10:30:49;;;;;;;;;;;24.60;44.40;;;;;;4998078;28;87164;-48
2021/08/13 10:33:15;;;;;;;;;;;24.60;44.40;;;;;;4998629;28;87568;-48
2021/08/13 10:35:45;;;;;;;;;;;24.70;44.30;;;;;;4999262;28;89658;-49
2021/08/13 10:38:11;;;;;;;;;;;24.70;44.20;;;;;;4999800;28;89046;-48
2021/08/13 10:40:37;;;;;;;;;;;24.70;44.80;;;;;;4997312;28;88850;-49
2021/08/13 10:43:03;;;;;;;;;;;24.70;44.40;;;;;;4999247;28;88960;-48
2021/08/13 10:45:31;;;;;;;;;;;24.80;44.20;;;;;;4996666;28;87439;-47
2021/08/13 10:48:14;;;;;;;;;;;24.80;44.10;;;;;;5000231;28;88201;-48
2021/08/13 10:50:41;;;;;;;;;;;24.80;44.90;;;;;;5001771;28;87220;-49
2021/08/13 10:53:25;;;;;;;;;;;24.80;44.30;;;;;;5001658;28;88092;-49
2021/08/13 10:55:53;;;;;;;;;;;24.80;44.20;;;;;;4999540;28;88089;-48
2021/08/13 10:58:31;;;;;;;;;;;24.80;44.50;;;;;;5002420;28;87217;-47
2021/08/13 11:01:04;;;;;;;;;;;24.80;43.80;;;;;;5001447;28;87152;-48
2021/08/13 11:03:29;;;;;;;;;;;24.80;44.10;;;;;;4998894;28;90101;-48
2021/08/13 11:05:57;;;;;;;;;;;24.90;43.80;;;;;;5003408;28;87196;-49
2021/08/13 11:08:23;;;;;;;;;;;24.90;43.90;;;;;;5000446;28;89055;-48
2021/08/13 11:10:49;;;;;;;;;;;24.90;44.30;;;;;;4999809;28;86513;-48
2021/08/13 11:13:18;;;;;;;;;;;24.90;44.20;;;;;;5000464;28;87173;-48
2021/08/13 11:15:44;;;;;;;;;;;24.90;43.70;;;;;;5002664;28;89062;-49
2021/08/13 11:18:27;;;;;;;;;;;24.90;43.80;;;;;;5002706;28;88130;-49
2021/08/13 11:20:52;;;;;;;;;;;24.90;43.60;;;;;;5002370;28;89920;-48
2021/08/13 11:23:18;;;;;;;;;;;25.00;43.90;;;;;;5003254;28;88726;-48
2021/08/13 11:25:44;;;;;;;;;;;25.00;44.20;;;;;;5006709;28;87150;-48
2021/08/13 11:28:20;;;;;;;;;;;25.00;43.60;;;;;;5003132;28;88901;-48
2021/08/13 11:30:46;;;;;;;;;;;25.00;44.00;;;;;;5000385;28;88329;-47
2021/08/13 11:33:27;;;;;;;;;;;25.10;43.40;;;;;;4999248;28;87659;-48
2021/08/13 11:35:53;;;;;;;;;;;25.10;43.20;;;;;;4999319;28;88885;-48
2021/08/13 11:38:39;;;;;;;;;;;25.10;43.60;;;;;;4998444;28;88779;-50
2021/08/13 11:41:23;;;;;;;;;;;25.10;43.80;;;;;;4994997;28;91244;-48
2021/08/13 11:43:53;;;;;;;;;;;25.10;44.20;;;;;;5001231;28;90627;-48
2021/08/13 11:46:42;;;;;;;;;;;25.20;43.90;;;;;;4999500;28;87866;-50
2021/08/13 11:49:08;;;;;;;;;;;25.20;43.30;;;;;;5003931;28;87992;-48
2021/08/13 11:51:33;;;;;;;;;;;25.20;43.90;;;;;;5002396;28;87165;-48
2021/08/13 11:53:59;;;;;;;;;;;25.20;43.70;;;;;;5002129;28;89253;-49
2021/08/13 11:56:26;;;;;;;;;;;25.20;43.70;;;;;;4999310;28;89258;-49
2021/08/13 11:58:58;;;;;;;;;;;25.30;43.40;;;;;;5001416;28;88414;-48
2021/08/13 12:01:24;;;;;;;;;;;25.30;42.70;;;;;;5002332;28;88881;-49
2021/08/13 12:03:52;;;;;;;;;;;25.30;43.30;;;;;;5001185;28;89485;-49
2021/08/13 12:06:18;;;;;;;;;;;25.30;43.10;;;;;;5001266;28;87150;-49
2021/08/13 12:08:44;;;;;;;;;;;25.30;43.00;;;;;;5001510;28;88132;-49
2021/08/13 12:11:10;;;;;;;;;;;25.30;42.60;;;;;;5004406;28;89523;-49
2021/08/13 12:13:36;;;;;;;;;;;25.30;43.20;;;;;;5002167;28;87172;-49
2021/08/13 12:16:03;;;;;;;;;;;25.40;42.80;;;;;;5000820;28;89045;-47
2021/08/13 12:18:30;;;;;;;;;;;25.40;42.40;;;;;;4999560;28;87186;-49
2021/08/13 12:20:55;;;;;;;;;;;25.40;42.60;;;;;;4998850;28;87693;-47
2021/08/13 12:23:22;;;;;;;;;;;25.40;43.30;;;;;;4998386;28;88125;-48
2021/08/13 12:25:48;;;;;;;;;;;25.40;43.10;;;;;;4999153;28;86412;-48
2021/08/13 12:28:17;;;;;;;;;;;25.40;42.30;;;;;;4999374;28;88711;-48
2021/08/13 12:30:42;;;;;;;;;;;25.50;43.20;;;;;;5000628;28;88317;-48
2021/08/13 12:33:15;;;;;;;;;;;25.50;43.20;;;;;;5004197;28;88133;-49
2021/08/13 12:35:45;;;;;;;;;;;25.50;42.60;;;;;;5000859;28;88145;-48
2021/08/13 12:38:10;;;;;;;;;;;25.50;42.80;;;;;;5000587;28;88855;-48
2021/08/13 12:40:40;;;;;;;;;;;25.50;42.90;;;;;;4999043;28;87250;-47
2021/08/13 12:43:06;;;;;;;;;;;25.50;42.90;;;;;;4999415;28;87173;-48
2021/08/13 12:45:31;;;;;;;;;;;25.50;43.00;;;;;;5000951;28;87178;-48
2021/08/13 12:47:57;;;;;;;;;;;25.60;42.70;;;;;;5001908;28;87264;-49
2021/08/13 12:50:23;;;;;;;;;;;25.60;42.70;;;;;;5000587;28;87600;-48
2021/08/13 12:53:08;;;;;;;;;;;25.60;42.90;;;;;;4998238;28;88248;-48
2021/08/13 12:55:35;;;;;;;;;;;25.60;43.00;;;;;;5000509;28;87627;-48
2021/08/13 12:58:00;;;;;;;;;;;25.70;42.30;;;;;;5001105;28;89325;-47
2021/08/13 13:00:29;;;;;;;;;;;25.70;42.40;;;;;;5002305;28;88400;-53
2021/08/13 13:03:08;;;;;;;;;;;25.70;42.40;;;;;;4998162;28;88175;-48
2021/08/13 13:05:33;;;;;;;;;;;25.70;42.80;;;;;;5001459;28;91113;-51
2021/08/13 13:07:59;;;;;;;;;;;25.70;43.00;;;;;;5002303;28;88300;-48
2021/08/13 13:10:24;;;;;;;;;;;25.80;39.40;;;;;;5000139;28;89501;-51
2021/08/13 13:12:51;;;;;;;;;;;26.00;38.00;;;;;;4996127;28;88735;-50
2021/08/13 13:15:24;;;;;;;;;;;26.40;38.40;;;;;;4999689;28;88079;-56
2021/08/13 13:17:54;;;;;;;;;;;26.60;38.20;;;;;;4999928;28;87148;-57
2021/08/13 13:20:19;;;;;;;;;;;26.60;37.60;;;;;;4999690;28;89171;-48
2021/08/13 13:22:59;;;;;;;;;;;26.60;37.10;;;;;;4998540;28;89632;-48
2021/08/13 13:25:25;;;;;;;;;;;26.70;37.50;;;;;;5001590;28;87330;-47
2021/08/13 13:27:55;;;;;;;;;;;26.70;36.90;;;;;;4998158;28;87741;-57
2021/08/13 13:30:47;;;;;;;;;;;26.80;37.80;;;;;;4997223;28;89562;-49
2021/08/13 13:33:22;;;;;;;;;;;26.90;38.40;;;;;;4993833;28;87228;-54
2021/08/13 13:35:53;;;;;;;;;;;26.90;39.30;;;;;;4996677;28;88656;-49
2021/08/13 13:38:23;;;;;;;;;;;27.00;39.80;;;;;;5004271;28;87277;-51
2021/08/13 13:40:48;;;;;;;;;;;27.00;39.80;;;;;;4997398;28;89213;-48
2021/08/13 13:43:14;;;;;;;;;;;27.00;40.20;;;;;;4997749;28;87707;-47
2021/08/13 13:45:40;;;;;;;;;;;26.90;40.20;;;;;;4999496;28;87224;-57
2021/08/13 13:48:05;;;;;;;;;;;27.00;40.60;;;;;;4999027;28;88182;-50
2021/08/13 13:50:31;;;;;;;;;;;27.10;40.00;;;;;;4999591;28;87588;-56
2021/08/13 13:52:57;;;;;;;;;;;27.10;39.60;;;;;;4999771;28;87157;-50
2021/08/13 13:55:25;;;;;;;;;;;27.10;39.30;;;;;;4993308;28;88764;-49
2021/08/13 13:57:51;;;;;;;;;;;27.20;39.50;;;;;;4986315;28;87669;-58
2021/08/13 14:00:17;;;;;;;;;;;27.20;40.20;;;;;;5001895;28;87246;-58
2021/08/13 14:02:43;;;;;;;;;;;27.20;40.80;;;;;;4984157;28;88455;-59
2021/08/13 14:05:10;;;;;;;;;;;27.30;40.60;;;;;;4977381;28;87007;-49
2021/08/13 14:07:36;;;;;;;;;;;27.30;40.70;;;;;;4975160;28;87612;-51
2021/08/13 14:10:05;;;;;;;;;;;27.30;40.80;;;;;;4975809;28;89067;-52
2021/08/13 14:12:31;;;;;;;;;;;27.30;40.90;;;;;;4978435;28;89082;-56
2021/08/13 14:14:57;;;;;;;;;;;27.40;41.10;;;;;;4996618;28;88109;-57
2021/08/13 14:17:22;;;;;;;;;;;27.40;41.00;;;;;;4978448;28;87256;-48